Time;durP1;ratioP1;P1;durP2;ratioP2;P2;SDS_P1;SDS_P2;PMS_P1;PMS_P2;Temp;Humidity;BMP_temperature;BMP_pressure;BME280_temperature;BME280_humidity;BME280_pressure;Samples;Min_cycle;Max_cycle;Signal;HPM_P1;HPM_P2
2023/04/21 00:00:09;;;;;;;70.40;31.50;;;;;;;5.62;84.10;98719.86;105307;1253;97996;-65
2023/04/21 00:02:38;;;;;;;62.90;31.50;;;;;;;5.56;83.95;98720.93;104987;1262;98188;-64
2023/04/21 00:05:12;;;;;;;61.90;31.10;;;;;;;5.49;84.09;98716.13;105190;1257;108648;-65
2023/04/21 00:07:40;;;;;;;68.00;31.90;;;;;;;5.42;84.17;98717.61;104930;1262;98063;-65
2023/04/21 00:10:11;;;;;;;65.30;30.10;;;;;;;5.41;84.48;98717.89;104870;1262;98261;-65
2023/04/21 00:12:38;;;;;;;63.30;30.90;;;;;;;5.44;84.54;98719.79;104931;1260;111546;-65
2023/04/21 00:15:05;;;;;;;66.30;30.40;;;;;;;5.45;84.74;98716.52;105175;1267;98619;-68
2023/04/21 00:17:32;;;;;;;60.90;29.10;;;;;;;5.46;84.86;98715.32;105186;1270;108613;-65
2023/04/21 00:19:59;;;;;;;60.00;30.90;;;;;;;5.48;84.60;98715.85;105181;1256;97878;-67
2023/04/21 00:22:26;;;;;;;57.90;30.00;;;;;;;5.51;84.87;98715.02;105236;1256;98289;-65
2023/04/21 00:24:53;;;;;;;50.80;26.90;;;;;;;5.51;84.46;98712.41;105155;1264;98817;-65
2023/04/21 00:27:20;;;;;;;53.20;29.20;;;;;;;5.46;84.33;98714.94;105187;1260;97962;-66
2023/04/21 00:29:47;;;;;;;60.60;28.30;;;;;;;5.39;84.53;98714.96;105185;1256;97897;-66
2023/04/21 00:32:15;;;;;;;55.60;27.60;;;;;;;5.38;85.02;98713.23;105293;1266;97986;-64
2023/04/21 00:34:42;;;;;;;57.90;25.90;;;;;;;5.37;84.56;98711.70;105040;1270;111858;-65
2023/04/21 00:37:11;;;;;;;51.50;26.10;;;;;;;5.31;84.57;98712.49;105159;1256;97941;-65
2023/04/21 00:39:41;;;;;;;48.60;25.00;;;;;;;5.25;84.70;98712.08;105470;1265;108549;-65
2023/04/21 00:42:09;;;;;;;62.70;27.30;;;;;;;5.16;84.69;98712.70;105246;1256;99250;-65
2023/04/21 00:44:38;;;;;;;55.00;26.50;;;;;;;5.11;84.98;98709.46;105243;1266;97982;-65
2023/04/21 00:47:07;;;;;;;52.10;27.60;;;;;;;5.08;85.28;98710.44;105121;1266;112679;-65
2023/04/21 00:49:36;;;;;;;63.30;29.10;;;;;;;5.07;85.32;98708.00;104951;1262;98322;-65
2023/04/21 00:52:05;;;;;;;60.60;29.60;;;;;;;5.05;85.44;98706.01;104810;1261;106613;-65
2023/04/21 00:54:36;;;;;;;68.40;32.50;;;;;;;5.04;85.53;98704.31;104955;1261;98889;-65
2023/04/21 00:57:06;;;;;;;64.30;30.90;;;;;;;5.03;85.78;98703.19;105229;1256;98293;-64
2023/04/21 00:59:35;;;;;;;59.30;29.60;;;;;;;5.06;85.74;98699.48;104894;1261;111598;-64
2023/04/21 01:02:04;;;;;;;60.50;29.90;;;;;;;5.07;85.50;98697.84;104982;1260;98059;-65
2023/04/21 01:04:39;;;;;;;62.40;29.80;;;;;;;5.09;85.37;98696.37;105197;1266;106973;-64
2023/04/21 01:07:07;;;;;;;59.10;29.30;;;;;;;5.04;85.51;98694.10;105006;1269;99295;-65
2023/04/21 01:09:34;;;;;;;61.80;29.30;;;;;;;5.00;85.79;98693.03;105262;1256;97934;-66
2023/04/21 01:12:09;;;;;;;68.10;31.50;;;;;;;4.95;85.98;98689.08;105077;1256;97909;-65
2023/04/21 01:14:39;;;;;;;62.80;30.80;;;;;;;4.91;86.05;98689.37;105149;1253;98869;-63
2023/04/21 01:17:07;;;;;;;66.00;29.90;;;;;;;4.83;85.86;98693.67;105292;1256;108249;-64
2023/04/21 01:19:41;;;;;;;71.10;34.50;;;;;;;4.72;85.80;98693.90;105040;1262;99393;-65
2023/04/21 01:22:12;;;;;;;64.80;31.60;;;;;;;4.60;86.30;98693.44;105114;1256;98203;-64
2023/04/21 01:24:40;;;;;;;;;;;;;;;4.57;86.75;98690.11;105158;1256;112334;-64
2023/04/21 01:27:09;;;;;;;77.30;38.20;;;;;;;4.59;87.18;98691.20;104998;1262;98778;-64
2023/04/21 01:29:38;;;;;;;72.60;38.10;;;;;;;4.63;86.92;98691.53;104750;1262;108031;-64
2023/04/21 01:32:09;;;;;;;69.90;34.70;;;;;;;4.65;86.95;98686.26;104973;1260;98068;-66
2023/04/21 01:34:37;;;;;;;67.00;33.20;;;;;;;4.71;86.86;98687.77;105100;1266;97882;-66
2023/04/21 01:37:11;;;;;;;63.20;32.70;;;;;;;4.73;86.33;98691.35;105280;1256;111753;-68
2023/04/21 01:39:45;;;;;;;64.80;30.30;;;;;;;4.71;86.32;98691.46;105074;1270;98835;-64
2023/04/21 01:42:13;;;;;;;67.20;30.10;;;;;;;4.74;86.80;98690.59;105362;1272;108687;-65
2023/04/21 01:44:40;;;;;;;63.10;29.40;;;;;;;4.76;86.75;98694.71;105253;1257;97885;-64
2023/04/21 01:47:07;;;;;;;64.80;31.30;;;;;;;4.76;86.63;98693.25;105253;1256;97892;-64
2023/04/21 01:49:33;;;;;;;64.00;31.00;;;;;;;4.72;86.55;98693.10;105237;1260;97899;-64
2023/04/21 01:52:00;;;;;;;66.20;30.10;;;;;;;4.69;86.71;98695.16;105243;1266;97883;-65
2023/04/21 01:54:27;;;;;;;62.70;30.50;;;;;;;4.65;86.90;98695.81;105011;1260;98163;-65
2023/04/21 01:56:55;;;;;;;58.10;29.30;;;;;;;4.59;86.74;98698.42;105296;1256;97973;-65
2023/04/21 01:59:22;;;;;;;52.90;28.60;;;;;;;4.54;87.10;98699.24;105211;1256;112323;-65
2023/04/21 02:01:49;;;;;;;61.40;28.40;;;;;;;4.50;87.50;98703.98;105209;1257;98237;-65
2023/04/21 02:04:16;;;;;;;61.90;32.30;;;;;;;4.50;87.86;98708.15;105248;1263;97874;-65
2023/04/21 02:06:43;;;;;;;57.70;28.60;;;;;;;4.39;88.11;98712.77;105188;1258;97922;-66
2023/04/21 02:09:10;;;;;;;66.30;33.70;;;;;;;4.26;88.87;98710.48;105096;1256;98725;-65
2023/04/21 02:11:37;;;;;;;66.00;31.50;;;;;;;4.25;88.82;98702.19;105004;1270;97969;-66
2023/04/21 02:14:04;;;;;;;64.80;32.30;;;;;;;4.31;89.00;98701.36;105260;1256;99183;-64
2023/04/21 02:16:31;;;;;;;63.30;31.80;;;;;;;4.36;88.96;98698.65;105215;1268;98056;-65
2023/04/21 02:18:59;;;;;;;61.00;32.90;;;;;;;4.41;88.61;98692.30;104975;1262;98000;-65
2023/04/21 02:21:26;;;;;;;57.60;31.10;;;;;;;4.41;88.32;98691.27;105227;1267;98853;-65
2023/04/21 02:23:53;;;;;;;57.90;28.60;;;;;;;4.44;88.07;98689.96;105052;1270;99168;-65
2023/04/21 02:26:21;;;;;;;55.10;28.10;;;;;;;4.44;88.05;98687.31;105255;1257;98005;-66
2023/04/21 02:28:49;;;;;;;52.90;26.20;;;;;;;4.40;87.93;98689.52;105155;1259;98580;-66
2023/04/21 02:31:17;;;;;;;59.00;29.50;;;;;;;4.34;87.83;98689.59;105085;1261;99731;-65
2023/04/21 02:33:44;;;;;;;60.60;29.30;;;;;;;4.30;87.67;98694.14;105036;1260;110957;-65
2023/04/21 02:36:12;;;;;;;69.80;32.60;;;;;;;4.16;88.11;98694.64;105229;1256;97996;-65
2023/04/21 02:38:39;;;;;;;64.70;32.60;;;;;;;4.02;88.73;98698.30;105245;1265;97922;-66
2023/04/21 02:41:06;;;;;;;65.70;32.70;;;;;;;3.96;89.08;98699.44;105208;1267;97910;-64
2023/04/21 02:43:33;;;;;;;62.90;33.90;;;;;;;4.03;89.72;98700.95;104984;1267;99189;-65
2023/04/21 02:46:07;;;;;;;58.40;30.70;;;;;;;4.09;89.55;98699.63;105180;1258;97960;-64
2023/04/21 02:48:35;;;;;;;60.30;31.70;;;;;;;4.14;89.76;98697.08;105003;1259;99097;-65
2023/04/21 02:51:03;;;;;;;66.10;31.70;;;;;;;4.19;89.64;98696.71;105049;1259;106830;-64
2023/04/21 02:53:31;;;;;;;68.50;33.50;;;;;;;4.20;88.86;98696.64;104840;1268;98794;-65
2023/04/21 02:55:58;;;;;;;59.20;32.30;;;;;;;4.17;88.79;98693.17;105151;1256;99107;-65
2023/04/21 02:58:25;;;;;;;63.90;31.50;;;;;;;4.17;88.82;98688.52;104790;1271;111980;-69
2023/04/21 03:00:52;;;;;;;54.20;28.90;;;;;;;4.17;89.01;98691.55;105198;1256;97837;-64
2023/04/21 03:03:19;;;;;;;62.00;30.90;;;;;;;4.19;89.27;98691.16;105025;1260;97973;-64
2023/04/21 03:05:47;;;;;;;58.90;31.40;;;;;;;4.19;88.98;98690.19;105246;1253;98028;-65
2023/04/21 03:08:14;;;;;;;65.90;31.30;;;;;;;4.14;88.82;98695.66;105228;1267;98554;-65
2023/04/21 03:10:41;;;;;;;61.90;30.80;;;;;;;4.14;88.96;98696.70;105276;1256;99435;-65
2023/04/21 03:13:08;;;;;;;63.70;32.60;;;;;;;4.12;88.82;98697.84;105234;1275;97948;-65
2023/04/21 03:15:35;;;;;;;64.50;32.10;;;;;;;4.12;88.82;98696.84;105205;1267;99216;-66
2023/04/21 03:18:02;;;;;;;58.10;30.70;;;;;;;4.11;88.38;98703.04;105211;1267;97929;-66
2023/04/21 03:20:29;;;;;;;59.30;29.90;;;;;;;4.09;88.55;98699.50;105166;1258;97925;-64
2023/04/21 03:22:56;;;;;;;61.10;31.00;;;;;;;4.10;88.63;98698.31;105334;1267;99211;-64
2023/04/21 03:25:26;;;;;;;57.80;29.40;;;;;;;4.07;88.14;98695.33;105277;1267;108830;-65
2023/04/21 03:27:54;;;;;;;53.40;28.20;;;;;;;4.02;87.74;98696.19;104914;1271;98052;-65
2023/04/21 03:30:25;;;;;;;51.90;26.60;;;;;;;3.98;87.88;98701.83;105192;1275;98404;-66
2023/04/21 03:32:54;;;;;;;52.60;25.70;;;;;;;3.93;88.12;98706.65;105017;1260;111468;-65
2023/04/21 03:35:21;;;;;;;51.60;23.90;;;;;;;3.94;88.43;98704.42;105028;1267;99172;-65
2023/04/21 03:37:48;;;;;;;50.30;26.20;;;;;;;3.98;88.87;98708.17;105181;1266;99211;-65
2023/04/21 03:40:15;;;;;;;58.10;29.00;;;;;;;3.97;88.58;98708.23;105159;1256;97966;-65
2023/04/21 03:42:43;;;;;;;69.60;32.30;;;;;;;3.98;88.83;98706.98;105171;1258;97880;-68
2023/04/21 03:45:10;;;;;;;66.30;31.80;;;;;;;3.99;88.84;98706.54;104934;1257;98482;-65
2023/04/21 03:47:37;;;;;;;62.90;30.20;;;;;;;3.97;88.61;98703.95;105180;1266;98801;-65
2023/04/21 03:50:05;;;;;;;57.30;28.50;;;;;;;3.97;89.04;98708.29;105213;1257;98717;-65
2023/04/21 03:52:32;;;;;;;55.40;28.00;;;;;;;3.96;88.72;98709.41;104952;1268;98482;-65
2023/04/21 03:54:59;;;;;;;58.90;28.00;;;;;;;3.92;88.71;98708.05;105153;1257;97878;-65
2023/04/21 03:57:26;;;;;;;57.10;28.20;;;;;;;3.89;88.80;98710.43;104992;1258;98806;-65
2023/04/21 03:59:53;;;;;;;58.50;28.60;;;;;;;3.92;89.05;98716.24;104959;1269;97995;-66
2023/04/21 04:02:20;;;;;;;51.20;28.00;;;;;;;3.96;88.88;98714.45;105039;1270;99196;-66
2023/04/21 04:04:47;;;;;;;57.30;27.40;;;;;;;3.97;89.04;98714.80;105162;1258;99371;-64
2023/04/21 04:07:16;;;;;;;51.80;25.80;;;;;;;4.04;89.22;98714.36;104982;1265;97983;-65
2023/04/21 04:09:43;;;;;;;48.00;26.40;;;;;;;4.09;89.27;98712.91;105211;1265;98826;-65
2023/04/21 04:12:10;;;;;;;51.90;27.20;;;;;;;4.10;89.13;98715.18;105189;1267;98088;-66
2023/04/21 04:14:38;;;;;;;50.10;25.60;;;;;;;4.10;89.47;98715.63;105040;1260;97909;-65
2023/04/21 04:17:05;;;;;;;48.90;25.30;;;;;;;4.13;89.49;98718.44;105265;1256;97970;-66
2023/04/21 04:19:32;;;;;;;46.20;24.10;;;;;;;4.12;89.71;98717.02;105223;1266;99261;-67
2023/04/21 04:22:00;;;;;;;51.20;25.80;;;;;;;4.15;90.35;98719.60;105234;1266;98505;-65
2023/04/21 04:24:27;;;;;;;63.30;29.80;;;;;;;4.27;90.59;98717.58;105344;1273;97879;-64
2023/04/21 04:26:54;;;;;;;56.80;29.20;;;;;;;4.39;90.67;98719.27;105229;1254;98805;-65
2023/04/21 04:29:21;;;;;;;56.60;29.30;;;;;;;4.50;90.51;98720.52;105249;1258;97970;-66
2023/04/21 04:31:49;;;;;;;55.10;28.50;;;;;;;4.58;90.44;98725.56;105192;1256;99168;-65
2023/04/21 04:34:16;;;;;;;45.20;25.80;;;;;;;4.66;90.29;98727.20;105272;1258;97962;-66
2023/04/21 04:36:44;;;;;;;49.60;25.40;;;;;;;4.72;90.17;98730.40;105200;1257;98762;-66
2023/04/21 04:39:11;;;;;;;56.60;25.40;;;;;;;4.77;90.10;98733.92;105249;1258;97886;-66
2023/04/21 04:41:38;;;;;;;51.40;25.40;;;;;;;4.84;90.03;98736.52;105062;1266;97886;-65
2023/04/21 04:44:05;;;;;;;60.30;29.10;;;;;;;4.96;90.23;98738.39;105176;1257;98150;-65
2023/04/21 04:46:32;;;;;;;53.70;28.20;;;;;;;5.08;90.11;98738.52;105310;1254;97827;-65
2023/04/21 04:49:00;;;;;;;53.60;28.90;;;;;;;5.21;90.18;98741.01;105052;1258;98052;-66
2023/04/21 04:51:27;;;;;;;64.90;30.40;;;;;;;5.28;89.89;98741.09;105298;1269;97893;-66
2023/04/21 04:53:54;;;;;;;61.90;30.80;;;;;;;5.29;90.05;98740.00;105091;1257;97931;-66
2023/04/21 04:56:22;;;;;;;60.70;31.00;;;;;;;5.37;90.49;98741.77;105228;1275;98023;-66
2023/04/21 04:58:49;;;;;;;65.70;30.90;;;;;;;5.50;90.59;98742.81;105163;1260;97889;-66
2023/04/21 05:01:17;;;;;;;58.80;31.50;;;;;;;5.64;90.32;98743.77;105227;1266;98800;-65
2023/04/21 05:03:44;;;;;;;60.40;30.60;;;;;;;5.79;90.32;98741.48;105077;1270;98043;-65
2023/04/21 05:06:13;;;;;;;58.60;31.40;;;;;;;5.98;90.51;98744.16;105203;1257;99216;-65
2023/04/21 05:08:42;;;;;;;62.70;31.90;;;;;;;6.11;89.74;98746.61;105228;1258;99245;-66
2023/04/21 05:11:09;;;;;;;59.90;30.00;;;;;;;6.24;89.62;98744.48;105153;1268;108137;-66
2023/04/21 05:13:36;;;;;;;61.00;30.50;;;;;;;6.41;89.65;98747.38;105208;1267;98724;-66
2023/04/21 05:16:06;;;;;;;71.70;36.80;;;;;;;6.59;89.27;98747.63;104815;1260;99159;-65
2023/04/21 05:18:33;;;;;;;65.10;34.90;;;;;;;6.71;89.10;98747.20;105230;1266;112219;-65
2023/04/21 05:21:00;;;;;;;68.00;34.60;;;;;;;6.79;88.85;98746.09;105247;1257;98038;-66
2023/04/21 05:23:27;;;;;;;63.10;34.10;;;;;;;6.88;88.73;98746.84;105028;1264;97983;-65
2023/04/21 05:25:54;;;;;;;116.10;49.10;;;;;;;7.02;88.36;98751.39;104867;1267;97963;-66
2023/04/21 05:28:22;;;;;;;180.60;66.70;;;;;;;7.18;88.49;98750.90;105244;1256;98003;-65
2023/04/21 05:30:49;;;;;;;118.40;50.40;;;;;;;7.36;88.14;98750.44;105014;1254;97939;-66
2023/04/21 05:33:19;;;;;;;88.70;45.30;;;;;;;7.54;87.89;98749.67;105256;1257;98888;-66
2023/04/21 05:35:46;;;;;;;78.10;42.40;;;;;;;7.72;88.02;98748.70;105081;1264;108757;-65
2023/04/21 05:38:13;;;;;;;74.50;41.00;;;;;;;7.94;87.77;98744.27;105134;1258;98788;-66
2023/04/21 05:40:40;;;;;;;62.70;33.70;;;;;;;8.16;87.35;98743.75;105092;1257;98531;-66
2023/04/21 05:43:07;;;;;;;62.20;31.80;;;;;;;8.38;87.02;98740.02;105239;1257;97934;-66
2023/04/21 05:45:38;;;;;;;69.00;32.60;;;;;;;8.59;86.91;98743.16;105235;1258;97995;-66
2023/04/21 05:48:05;;;;;;;62.40;30.60;;;;;;;8.82;86.62;98745.90;104941;1268;108199;-67
2023/04/21 05:50:34;;;;;;;54.10;30.00;;;;;;;8.99;85.60;98748.20;105305;1257;98471;-66
2023/04/21 05:53:01;;;;;;;53.20;30.20;;;;;;;9.12;85.24;98745.44;104973;1259;98402;-66
2023/04/21 05:55:28;;;;;;;55.40;28.10;;;;;;;9.24;84.78;98751.17;105177;1267;98756;-66
2023/04/21 05:57:55;;;;;;;47.80;28.50;;;;;;;9.33;84.29;98751.55;105246;1258;97890;-65
2023/04/21 06:00:23;;;;;;;36.70;19.20;;;;;;;9.53;84.72;98751.88;105232;1257;97901;-65
2023/04/21 06:02:50;;;;;;;25.40;15.50;;;;;;;9.57;80.67;98751.64;105157;1256;97922;-66
2023/04/21 06:05:18;;;;;;;32.60;17.10;;;;;;;9.52;80.31;98751.99;105289;1258;98440;-67
2023/04/21 06:07:45;;;;;;;35.10;17.90;;;;;;;9.54;81.03;98749.58;105130;1257;97869;-67
2023/04/21 06:10:13;;;;;;;36.10;18.70;;;;;;;9.64;80.69;98747.79;105168;1254;97941;-66
2023/04/21 06:12:40;;;;;;;33.50;18.80;;;;;;;9.76;80.42;98749.11;104812;1261;107500;-67
2023/04/21 06:15:08;;;;;;;27.70;17.10;;;;;;;9.84;79.47;98748.24;105030;1257;97927;-66
2023/04/21 06:17:35;;;;;;;34.00;17.30;;;;;;;9.84;78.95;98752.02;105130;1259;97888;-66
2023/04/21 06:20:03;;;;;;;34.00;17.70;;;;;;;9.91;79.53;98752.95;105064;1267;97909;-66
2023/04/21 06:22:29;;;;;;;36.00;19.30;;;;;;;10.00;78.63;98749.48;105268;1258;98888;-66
2023/04/21 06:24:56;;;;;;;28.40;17.30;;;;;;;10.16;78.12;98749.96;105027;1257;97940;-66
2023/04/21 06:27:25;;;;;;;32.60;17.00;;;;;;;10.25;77.57;98750.84;105190;1257;97993;-66
2023/04/21 06:29:55;;;;;;;33.00;18.40;;;;;;;10.38;78.70;98749.63;105243;1272;97819;-66
2023/04/21 06:32:22;;;;;;;31.00;17.70;;;;;;;10.62;78.69;98748.26;104989;1259;111854;-66
2023/04/21 06:34:49;;;;;;;34.40;18.00;;;;;;;10.85;77.82;98750.00;105112;1257;99227;-65
2023/04/21 06:37:16;;;;;;;31.30;18.00;;;;;;;11.04;77.26;98752.80;105069;1254;97900;-66
2023/04/21 06:39:44;;;;;;;30.40;17.70;;;;;;;11.25;76.40;98751.94;104940;1254;97988;-66
2023/04/21 06:42:11;;;;;;;35.80;19.00;;;;;;;11.31;75.45;98748.07;104899;1258;98062;-66
2023/04/21 06:44:38;;;;;;;32.40;19.30;;;;;;;11.46;75.90;98752.88;105137;1254;97868;-66
2023/04/21 06:47:05;;;;;;;29.70;16.90;;;;;;;11.67;75.23;98748.45;104980;1267;97927;-66
2023/04/21 06:49:33;;;;;;;28.70;15.00;;;;;;;11.78;73.06;98745.73;104927;1258;97974;-66
2023/04/21 06:52:00;;;;;;;30.50;16.10;;;;;;;11.75;72.90;98746.20;105021;1257;99277;-66
2023/04/21 06:54:27;;;;;;;26.30;16.30;;;;;;;11.84;72.43;98740.52;105141;1257;99201;-65
2023/04/21 06:56:53;;;;;;;27.40;16.40;;;;;;;11.96;72.54;98743.18;105064;1258;99208;-66
2023/04/21 06:59:21;;;;;;;30.70;15.40;;;;;;;12.08;71.16;98743.34;104865;1267;388365;-70
2023/04/21 07:01:51;;;;;;;29.30;15.20;;;;;;;12.12;70.45;98746.40;104824;1267;99137;-67
2023/04/21 07:04:18;;;;;;;31.70;18.10;;;;;;;12.21;70.97;98746.31;105140;1258;98588;-68
2023/04/21 07:06:47;;;;;;;30.40;17.40;;;;;;;12.46;72.47;98742.61;105273;1261;112398;-66
2023/04/21 07:09:14;;;;;;;29.30;17.20;;;;;;;12.68;70.74;98740.08;105299;1257;98974;-66
2023/04/21 07:11:41;;;;;;;29.10;16.60;;;;;;;12.83;70.15;98740.52;105222;1257;98023;-66
2023/04/21 07:14:08;;;;;;;29.10;17.20;;;;;;;12.82;68.89;98742.14;105216;1267;97907;-66
2023/04/21 07:16:35;;;;;;;27.50;16.70;;;;;;;12.86;68.94;98743.98;105175;1268;97948;-66
2023/04/21 07:19:02;;;;;;;31.10;17.20;;;;;;;12.95;69.47;98739.95;105230;1257;98005;-66
2023/04/21 07:21:30;;;;;;;33.90;18.50;;;;;;;13.08;68.93;98741.89;105246;1257;99115;-66
2023/04/21 07:23:58;;;;;;;29.70;17.20;;;;;;;13.26;69.71;98738.23;105246;1257;99207;-66
2023/04/21 07:26:25;;;;;;;30.00;15.60;;;;;;;13.54;67.22;98740.73;105133;1257;98050;-67
2023/04/21 07:28:52;;;;;;;28.80;15.50;;;;;;;13.67;66.00;98737.93;105180;1257;97840;-67
2023/04/21 07:31:19;;;;;;;26.30;15.60;;;;;;;13.75;66.14;98739.81;105160;1257;97965;-67
2023/04/21 07:33:46;;;;;;;23.20;14.60;;;;;;;13.88;65.65;98735.19;105095;1256;98367;-67
2023/04/21 07:36:14;;;;;;;27.90;14.40;;;;;;;14.15;65.99;98736.43;104969;1257;99189;-67
2023/04/21 07:38:42;;;;;;;24.60;13.60;;;;;;;14.50;65.86;98738.71;105280;1260;99221;-66
2023/04/21 07:41:13;;;;;;;30.10;14.20;;;;;;;14.72;63.87;98735.02;105233;1267;97890;-67
2023/04/21 07:43:40;;;;;;;;;;;;;;;14.90;64.61;98735.27;105304;1257;112171;-66
2023/04/21 07:46:07;;;;;;;24.10;14.20;;;;;;;15.12;62.20;98731.81;105270;1256;98891;-67
2023/04/21 07:48:34;;;;;;;24.50;13.60;;;;;;;15.22;63.00;98732.96;105226;1256;99220;-66
2023/04/21 07:51:02;;;;;;;28.00;13.60;;;;;;;15.43;62.55;98730.17;105183;1256;97985;-66
2023/04/21 07:53:29;;;;;;;21.90;13.60;;;;;;;15.70;61.13;98726.89;105249;1256;97942;-66
2023/04/21 07:55:58;;;;;;;23.80;12.80;;;;;;;15.94;60.59;98730.55;104866;1260;112065;-66
2023/04/21 07:58:25;;;;;;;18.80;11.10;;;;;;;16.22;59.95;98724.99;104715;1261;98065;-67
2023/04/21 08:00:52;;;;;;;22.00;11.60;;;;;;;16.31;58.42;98724.60;104906;1266;97910;-66
2023/04/21 08:03:19;;;;;;;19.60;11.40;;;;;;;16.56;58.57;98726.52;104979;1257;98369;-68
2023/04/21 08:05:50;;;;;;;22.80;11.90;;;;;;;16.85;56.81;98722.45;104998;1257;99221;-66
2023/04/21 08:08:19;;;;;;;20.80;11.40;;;;;;;17.11;57.74;98720.36;104998;1267;112196;-67
2023/04/21 08:10:46;;;;;;;21.70;11.70;;;;;;;17.47;56.75;98718.95;104954;1269;98097;-67
2023/04/21 08:13:13;;;;;;;27.40;11.70;;;;;;;17.68;54.31;98715.70;105082;1259;97929;-68
2023/04/21 08:15:40;;;;;;;16.10;10.10;;;;;;;17.87;55.15;98713.20;105023;1254;98082;-66
2023/04/21 08:18:08;;;;;;;26.80;11.60;;;;;;;18.21;54.48;98711.02;104965;1266;97889;-67
2023/04/21 08:20:35;;;;;;;18.10;10.00;;;;;;;18.50;52.94;98709.14;104976;1259;99085;-70
2023/04/21 08:23:03;;;;;;;19.80;11.10;;;;;;;18.83;53.67;98706.50;105040;1259;99077;-69
2023/04/21 08:25:30;;;;;;;17.80;11.30;;;;;;;19.20;52.46;98709.15;105076;1260;98246;-68
2023/04/21 08:27:57;;;;;;;19.50;11.50;;;;;;;19.57;51.63;98707.36;104951;1269;97906;-66
2023/04/21 08:30:27;;;;;;;15.80;10.20;;;;;;;19.92;51.68;98707.14;105072;1258;97978;-66
2023/04/21 08:32:54;;;;;;;17.60;9.90;;;;;;;20.26;48.74;98701.02;105118;1258;112124;-67
2023/04/21 08:35:21;;;;;;;21.20;10.40;;;;;;;20.54;50.14;98700.21;105150;1255;97896;-67
2023/04/21 08:37:48;;;;;;;15.80;9.40;;;;;;;20.97;49.59;98704.27;105013;1260;99868;-67
2023/04/21 08:40:17;;;;;;;16.30;9.20;;;;;;;21.34;47.08;98703.46;104986;1257;97879;-66
2023/04/21 08:42:47;;;;;;;13.00;7.70;;;;;;;21.46;46.42;98704.92;105104;1255;99081;-67
2023/04/21 08:45:14;;;;;;;13.50;8.60;;;;;;;21.64;44.54;98696.03;104987;1254;110707;-67
2023/04/21 08:47:41;;;;;;;16.40;9.20;;;;;;;21.85;44.96;98696.83;105057;1258;97999;-67
2023/04/21 08:50:12;;;;;;;13.40;8.50;;;;;;;22.24;44.88;98695.50;105232;1257;97892;-67
2023/04/21 08:52:39;;;;;;;14.70;9.30;;;;;;;22.56;43.93;98694.51;105042;1259;97898;-67
2023/04/21 08:55:08;;;;;;;14.60;9.10;;;;;;;22.84;43.28;98694.27;105183;1257;97874;-67
2023/04/21 08:57:35;;;;;;;12.60;7.90;;;;;;;22.75;39.27;98688.89;104988;1258;111179;-67
2023/04/21 09:00:03;;;;;;;13.70;7.90;;;;;;;22.54;39.92;98689.70;105185;1256;97903;-68
2023/04/21 09:02:55;;;;;;;11.40;8.30;;;;;;;22.53;40.16;98684.92;104859;1270;108051;-67
2023/04/21 09:05:32;;;;;;;11.90;8.50;;;;;;;22.87;39.15;98683.48;105254;1258;99212;-67
2023/04/21 09:08:12;;;;;;;11.50;6.70;;;;;;;23.19;38.08;98680.79;105064;1259;99067;-67
2023/04/21 09:10:48;;;;;;;10.20;6.60;;;;;;;23.37;35.33;98680.58;104835;1260;111264;-66
2023/04/21 09:13:17;;;;;;;9.60;6.50;;;;;;;23.18;34.93;98674.25;104889;1253;98027;-67
2023/04/21 09:15:49;;;;;;;9.10;5.80;;;;;;;23.12;35.23;98678.02;104937;1253;107599;-66
2023/04/21 09:18:19;;;;;;;9.30;6.60;;;;;;;23.19;35.57;98673.21;105220;1256;98014;-66
2023/04/21 09:20:48;;;;;;;;;;;;;;;23.43;34.76;98670.84;105023;1261;99253;-67
2023/04/21 09:23:16;;;;;;;8.90;6.10;;;;;;;23.56;34.89;98669.61;105200;1257;110292;-66
2023/04/21 09:25:44;;;;;;;9.20;5.90;;;;;;;23.61;34.48;98670.57;104959;1259;98842;-66
2023/04/21 09:28:13;;;;;;;8.00;5.50;;;;;;;23.52;33.36;98673.93;104910;1261;108279;-66
2023/04/21 09:30:42;;;;;;;8.60;5.20;;;;;;;23.14;30.89;98666.52;104939;1261;98461;-66
2023/04/21 09:33:18;;;;;;;10.00;5.90;;;;;;;22.78;32.02;98665.77;105234;1254;98085;-66
2023/04/21 09:36:00;;;;;;;7.60;5.30;;;;;;;22.62;31.83;98660.86;105214;1256;112221;-66
2023/04/21 09:38:26;;;;;;;7.70;4.80;;;;;;;22.56;31.62;98661.87;104962;1260;98020;-66
2023/04/21 09:40:58;;;;;;;9.40;5.00;;;;;;;22.55;29.20;98661.95;105132;1258;97991;-68
2023/04/21 09:43:25;;;;;;;9.40;4.50;;;;;;;21.79;29.58;98662.60;105167;1270;97908;-66
2023/04/21 09:45:54;;;;;;;7.40;5.40;;;;;;;21.38;29.45;98661.54;105227;1253;99125;-68
2023/04/21 09:48:24;;;;;;;9.70;5.50;;;;;;;20.96;29.81;98661.98;105433;1256;112021;-68
2023/04/21 09:50:53;;;;;;;6.80;5.30;;;;;;;20.65;29.82;98655.30;105053;1260;99112;-67
2023/04/21 09:53:41;;;;;;;7.50;5.10;;;;;;;20.74;30.03;98656.29;105162;1256;110131;-68
2023/04/21 09:56:14;;;;;;;4.80;3.40;;;;;;;20.47;28.46;98649.33;104889;1261;99199;-67
2023/04/21 09:58:53;;;;;;;6.70;4.50;;;;;;;20.00;29.01;98647.49;105335;1254;97990;-67
2023/04/21 10:01:23;;;;;;;8.80;4.80;;;;;;;19.80;29.67;98646.77;104982;1260;111722;-67
2023/04/21 10:03:51;;;;;;;6.80;4.80;;;;;;;19.93;30.42;98644.39;105312;1256;99260;-67
2023/04/21 10:06:19;;;;;;;8.30;5.20;;;;;;;20.17;30.72;98638.02;104967;1275;107683;-67
2023/04/21 10:08:48;;;;;;;8.00;5.20;;;;;;;20.35;30.60;98643.71;105297;1267;97962;-66
2023/04/21 10:11:17;;;;;;;7.00;4.60;;;;;;;20.34;30.18;98640.05;105260;1256;97969;-66
2023/04/21 10:13:45;;;;;;;7.30;5.30;;;;;;;20.07;29.47;98640.85;104996;1260;111222;-66
2023/04/21 10:16:16;;;;;;;9.80;5.30;;;;;;;19.96;30.16;98640.92;105257;1257;99209;-66
2023/04/21 10:18:45;;;;;;;7.20;5.50;;;;;;;20.02;30.74;98640.93;105227;1253;108707;-66
2023/04/21 10:21:23;;;;;;;8.70;5.20;;;;;;;19.89;31.00;98639.48;105037;1260;98104;-67
2023/04/21 10:23:52;;;;;;;10.80;5.70;;;;;;;19.42;32.09;98637.10;105016;1261;99592;-66
2023/04/21 10:26:23;;;;;;;7.90;6.10;;;;;;;19.02;32.20;98636.00;105298;1256;112181;-66
2023/04/21 10:28:55;;;;;;;;;;;;;;;18.83;32.90;98634.95;105309;1258;99205;-66
2023/04/21 10:31:33;;;;;;;11.60;5.80;;;;;;;18.68;33.24;98637.34;105174;1256;108676;-66
2023/04/21 10:34:15;;;;;;;10.20;5.80;;;;;;;18.52;33.74;98632.91;104953;1260;99215;-67
2023/04/21 10:36:55;;;;;;;9.60;5.50;;;;;;;18.45;34.40;98631.27;104981;1258;97873;-66
2023/04/21 10:39:36;;;;;;;7.50;5.40;;;;;;;18.38;34.42;98627.67;105210;1256;112424;-66
2023/04/21 10:42:33;;;;;;;6.50;5.50;;;;;;;18.27;35.28;98624.30;104922;1253;98445;-66
2023/04/21 10:45:05;;;;;;;8.60;6.00;;;;;;;18.20;35.80;98627.24;105211;1258;108858;-67
2023/04/21 10:47:37;;;;;;;11.10;5.20;;;;;;;18.12;35.09;98624.70;105231;1256;98793;-67
2023/04/21 10:50:27;;;;;;;10.40;5.40;;;;;;;18.01;35.02;98622.40;105030;1261;97862;-68
2023/04/21 10:52:55;;;;;;;7.10;5.10;;;;;;;17.94;34.85;98618.30;104816;1260;110763;-65
2023/04/21 10:55:28;;;;;;;9.70;5.40;;;;;;;17.95;35.47;98617.14;104883;1253;98029;-66
2023/04/21 10:57:55;;;;;;;8.30;5.90;;;;;;;17.93;35.80;98616.06;105201;1256;108672;-66
2023/04/21 11:00:24;;;;;;;8.70;5.50;;;;;;;17.88;35.84;98613.73;105057;1258;98815;-66
2023/04/21 11:02:57;;;;;;;8.30;5.40;;;;;;;17.88;35.41;98611.36;105223;1256;97941;-67
2023/04/21 11:05:42;;;;;;;9.10;5.80;;;;;;;17.91;35.01;98612.71;105232;1257;111765;-70
2023/04/21 11:08:14;;;;;;;10.10;5.80;;;;;;;18.03;35.25;98609.54;105013;1261;98778;-67
2023/04/21 11:10:43;;;;;;;8.00;4.90;;;;;;;18.53;34.75;98604.72;105275;1256;108682;-66
2023/04/21 11:13:10;;;;;;;10.20;5.10;;;;;;;19.23;33.49;98601.88;105185;1267;97999;-65
2023/04/21 11:15:38;;;;;;;6.90;4.90;;;;;;;19.97;32.71;98598.36;105152;1256;97880;-66
2023/04/21 11:18:07;;;;;;;7.30;4.90;;;;;;;20.11;31.99;98594.48;105320;1256;98566;-66
2023/04/21 11:20:41;;;;;;;6.20;4.60;;;;;;;20.01;31.88;98594.29;105078;1270;98194;-66
2023/04/21 11:23:08;;;;;;;6.00;4.20;;;;;;;19.86;31.48;98595.19;105244;1256;108569;-66